Nearby METAR Reports

 

KMTN - Baltimore/Martin, Maryland, USA
Distance from station: SSE 8mi, 13km
Updated: Fri, 31-Oct-2014 9:45pm EDT
Mostly cloudy
Mostly cloudy
 Wind from calm
Wind: Calm
Temperature: 46°F , 8°C
Dew Point: 39°F , 4°C
Humidity: 76%
Barometer: 29.87 inHg , 1011.5 hPa
Clouds: Mostly cloudy
Visibility: 10 miles , 16 km
Cloud details: Mostly cloudy 5500 ft
2014/11/01 01:45 KMTN 010145Z 00000KT 10SM BKN055 08/04 A2987 RMK LAST
KDMH - Baltimore/Dwntwn, Maryland, USA
Distance from station: SW 12mi, 19km
Updated: Fri, 31-Oct-2014 9:54pm EDT

 
Temperature: 50°F , 10°C
Dew Point: 36°F , 2°C
Humidity: 58%
Barometer: 29.87 inHg , 1011.5 hPa
2014/11/01 01:54 KDMH 010154Z AUTO 10/02 A2987 RMK AO1 SLP113 T01000017
 
KBWI - Balto/Wash Intl, Maryland, USA
Distance from station: SSW 20mi, 33km
Updated: Fri, 31-Oct-2014 9:54pm EDT
Mostly cloudy
Mostly cloudy
 Wind from N
Wind: N 5 mph , 7 km/h
Temperature: 48°F , 9°C
Wind Chill: 46°F , 8°C
Dew Point: 37°F , 3°C
Humidity: 66%
Barometer: 29.85 inHg , 1010.8 hPa
Clouds: Mostly cloudy
Visibility: 10 miles , 16 km
Cloud details: Few Clouds 5500 ft
Partly cloudy 15000 ft
Mostly cloudy 18000 ft
2014/11/01 01:54 KBWI 010154Z 36004KT 10SM FEW055 SCT150 BKN180 09/03 A2985 RMK AO2 SLP108 T00890028 $
KDMW - Carroll Cnty, Maryland, USA
Distance from station: WNW 30mi, 48km
Updated: Fri, 31-Oct-2014 9:55pm EDT
Overcast
Overcast
 Wind from calm
Wind: Calm
Temperature: 46°F , 8°C
Dew Point: 34°F , 1°C
Humidity: 62%
Barometer: 29.86 inHg , 1011.2 hPa
Clouds: Overcast
Visibility: 10 miles , 16 km
Cloud details: Overcast 5000 ft
2014/11/01 01:55 KDMW 010155Z AUTO 00000KT 10SM OVC050 08/01 A2986 RMK AO2
 
KNAK - Annapolis/Naval, Maryland, USA
Distance from station: S 30mi, 48km
Updated: Fri, 31-Oct-2014 9:54pm EDT
Partly cloudy
Partly cloudy
 Wind from N
Wind: N 5 mph , 7 km/h
Temperature: 52°F , 11°C
Dew Point: 39°F , 4°C
Humidity: 62%
Barometer: 29.85 inHg , 1010.8 hPa
Clouds: Partly cloudy
Visibility: 10 miles , 16 km
Cloud details: Partly cloudy 6000 ft
2014/11/01 01:54 KNAK 010154Z AUTO 01004KT 10SM SCT060 11/04 A2985 RMK AO2 SLP108 T01060044
KW29 - Stevensville, Maryland, USA
Distance from station: SSE 31mi, 50km
Updated: Fri, 31-Oct-2014 9:57pm EDT

 Wind from NNE
Wind: NNE 6 mph , 9 km/h
Temperature: 50°F , 10°C
Wind Chill: 48°F , 9°C
Dew Point: 37°F , 3°C
Humidity: 62%
Barometer: 29.84 inHg , 1010.5 hPa
Visibility: 10 miles , 16 km
2014/11/01 01:57 KW29 010157Z AUTO 03005KT 10SM 10/03 A2984 RMK AO1
 
KCGS - College Park, Maryland, USA
Distance from station: SW 38mi, 61km
Updated: Fri, 31-Oct-2014 9:55pm EDT
Overcast
Overcast
 Wind from calm
Wind: Calm
Temperature: 48°F , 9°C
Dew Point: 39°F , 4°C
Humidity: 71%
Barometer: 29.86 inHg , 1011.2 hPa
Clouds: Overcast
Visibility: 10 miles , 16 km
Cloud details: Overcast 5000 ft
2014/11/01 01:55 KCGS 010155Z AUTO 00000KT 10SM OVC050 09/04 A2986 RMK AO1
KGAI - Gaithersburg, Maryland, USA
Distance from station: WSW 40mi, 65km
Updated: Fri, 31-Oct-2014 10:15pm EDT
Overcast
Overcast
 Wind from NNE
Wind: NNE 5 mph , 7 km/h
Temperature: 46°F , 8°C
Wind Chill: 44°F , 7°C
Dew Point: 34°F , 1°C
Humidity: 62%
Barometer: 29.89 inHg , 1012.2 hPa
Clouds: Overcast
Visibility: 10 miles , 16 km
Cloud details: Overcast 5000 ft
2014/11/01 02:15 KGAI 010215Z 03004KT 10SM OVC050 08/01 A2989 RMK AO1
 
KTHV - York, Pennsylvania, USA
Distance from station: NNW 40mi, 65km
Updated: Fri, 31-Oct-2014 9:53pm EDT
Overcast
Overcast
 Wind from calm
Wind: Calm
Temperature: 46°F , 8°C
Dew Point: 37°F , 3°C
Humidity: 71%
Barometer: 29.87 inHg , 1011.5 hPa
Clouds: Overcast
Visibility: 10 miles , 16 km
Cloud details: Overcast 5500 ft
2014/11/01 01:53 KTHV 010153Z AUTO 00000KT 10SM OVC055 08/03 A2987 RMK AO2 SLP118 T00780033
KFDK - Frederick, Maryland, USA
Distance from station: W 47mi, 75km
Updated: Fri, 31-Oct-2014 9:55pm EDT
Clear
Clear
 Wind from calm
Wind: Calm
Temperature: 45°F , 7°C
Dew Point: 36°F , 2°C
Humidity: 71%
Barometer: 29.89 inHg , 1012.2 hPa
Clouds: Clear
Visibility: 10 miles , 16 km
2014/11/01 01:55 KFDK 010155Z AUTO 00000KT 10SM CLR 07/02 A2989 RMK AO2
 
KESN - Easton/Newnam, Maryland, USA
Distance from station: SSE 48mi, 78km
Updated: Fri, 31-Oct-2014 7:50pm EDT
NOT Current
Clear
Clear
 Wind from NNE
Wind: NNE 6 mph , 9 km/h
Temperature: 46°F , 8°C
Wind Chill: 43°F , 6°C
Dew Point: 39°F , 4°C
Humidity: 76%
Barometer: 29.89 inHg , 1012.2 hPa
Clouds: Clear
Visibility: 10 miles , 16 km
2014/10/31 23:50 KESN 312350Z 02005KT 10SM SKC 08/04 A2989
KDCA - Washington/Natl, Washington D.c., USA
Distance from station: SW 49mi, 79km
Updated: Fri, 31-Oct-2014 9:52pm EDT
Overcast
Overcast
 Wind from N
Wind: N 7 mph , 11 km/h
Temperature: 54°F , 12°C
Dew Point: 34°F , 1°C
Humidity: 47%
Barometer: 29.86 inHg , 1011.2 hPa
Clouds: Overcast
Visibility: 10 miles , 16 km
Cloud details: Overcast 5500 ft
2014/11/01 01:52 KDCA 010152Z 36006KT 10SM OVC055 12/01 A2986 RMK AO2 SLP112 T01220011
 
KLNS - Lancaster, Pennsylvania, USA
Distance from station: N 49mi, 79km
Updated: Fri, 31-Oct-2014 9:53pm EDT
Overcast
Overcast
 Wind from N
Wind: N 3 mph , 6 km/h
Temperature: 46°F , 8°C
Dew Point: 37°F , 3°C
Humidity: 71%
Barometer: 29.87 inHg , 1011.5 hPa
Clouds: Overcast
Visibility: 10 miles , 16 km
Cloud details: Partly cloudy 4100 ft
Overcast 6000 ft
2014/11/01 01:53 KLNS 010153Z 01003KT 10SM SCT041 OVC060 08/03 A2987 RMK AO2 SLP117 T00830028
KILG - Wilmington, Delaware, USA
Distance from station: ENE 50mi, 81km
Updated: Fri, 31-Oct-2014 9:51pm EDT
Overcast
Overcast
 Wind from N
Wind: N 9 mph , 15 km/h
Temperature: 48°F , 9°C
Wind Chill: 44°F , 7°C
Dew Point: 37°F , 3°C
Humidity: 66%
Barometer: 29.85 inHg , 1010.8 hPa
Clouds: Overcast
Visibility: 10 miles , 16 km
Cloud details: Partly cloudy 3400 ft
Partly cloudy 4100 ft
Overcast 5000 ft
2014/11/01 01:51 KILG 010151Z 36008KT 10SM SCT034 SCT041 OVC050 09/03 A2985 RMK AO2 SLP107 T00940028